aviador You're here:

CYQV Decoded Metar

YORKTON in SK, CANADA
Report Time2018-07-21 18:00:00
UTC Time2018-07-21 18:48:21
Flight Rules vfr VFR
Wind130° at 13 Gusting to 18 kt
W.Decomp.*RWY 12: 13.0 kt HW -0 kt LCW
RWY 03: 13.0 kt RCW
W.Rank130° ranks 13
Current wind is above 130° avg. (8.3)
Visibility9999 m
Phenomena:N/A
Clouds:Scattered 150 Hf
Broken 170 Hf
Expected CloudBase > 4,000 ft AGL from Temp-Dew spread
Ceiling17,000 ft
Temp23°C (ISA +11)
Dew Point13°C (53% RH)
AAT19.2°C
QNH1019 hPa
Density Alt2,943 ft
Elevation1,634 ft
Report Wrong Elevation
Raw Report
CYQV 211800Z AUTO 13013G18KT 9SM SCT150 BKN170 23/13 A3009 RMK
PRESFR SLP195 DENSITY ALT 2600FT=

Extra information for CYQV:More info

Metar Taf Metar & Taf Last 4 Metars F.Rules Stats Wind Profile Meteogram Temp Stats Airport Information Weather charts Add Link Nearby VenuesMetar ALERT Operation Metar Decoded Social comments